This is the latest recevied weather packets stored in our database for station/object VA3WWD-2. If no packets are shown the sender has not sent any weather packets the latest 10 day(s).
| Time | Temp. | Humidity | Pressure | Rain* | Wind** | Luminosity | Snow |
|---|---|---|---|---|---|---|---|
| 1778027406 | 6.11° C | 52% | - | 0 mm | 0 m/s | - | - |
| 1778026808 | 6.67° C | 52% | - | 0 mm | 0 m/s | - | - |
| 1778026510 | 6.67° C | 51% | - | 0 mm | 0 m/s | - | - |
| 1778026209 | 6.67° C | 50% | - | 0 mm | 0 m/s | - | - |
| 1778025911 | 6.67° C | 50% | - | 0 mm | 0 m/s | - | - |
| 1778025613 | 7.22° C | 50% | - | 0 mm | 0 m/s | - | - |
| 1778025312 | 6.67° C | 49% | - | 0 mm | 0 m/s | - | - |
| 1778024716 | 7.78° C | 48% | - | 0 mm | 0 m/s | - | - |
| 1778024415 | 7.78° C | 47% | - | 0 mm | 0 m/s | - | - |
| 1778024117 | 7.22° C | 47% | - | 0 mm | 0 m/s | - | - |
| 1778023518 | 8.33° C | 42% | - | 0 mm | 0 m/s | - | - |
| 1778022922 | 8.33° C | 42% | - | 0 mm | 0 m/s | - | - |
| 1778022621 | 8.89° C | 42% | - | 0 mm | 0 m/s | - | - |
| 1778022323 | 8.33° C | 43% | - | 0 mm | 0 m/s | - | - |
| 1778021725 | 8.89° C | 41% | - | 0 mm | 0 m/s | - | - |
| 1778021426 | 8.33° C | 43% | - | 0 mm | 0 m/s | - | - |
| 1778021129 | 8.33° C | 43% | - | 0 mm | 0 m/s | - | - |
| 1778020828 | 8.33° C | 42% | - | 0 mm | 0 m/s | - | - |
| 1778020232 | 8.33° C | 43% | - | 0 mm | 0 m/s | - | - |
| 1778019633 | 8.33° C | 42% | - | 0 mm | 0 m/s | - | - |
| 1778019335 | 8.89° C | 42% | - | 0 mm | 0 m/s | - | - |
| 1778019034 | 8.33° C | 42% | - | 0 mm | 0 m/s | - | - |
| 1778018736 | 9.44° C | 41% | - | 0 mm | 0 m/s | - | - |
| 1778018438 | 8.33° C | 42% | - | 0 mm | 0 m/s | - | - |
| 1778018137 | 7.78° C | 41% | - | 0 mm | 0 m/s | - | - |
* Rain latest hour (hover to see other rain measurements)
** Current wind speed in m/s (hover to see current wind gust speed)